Time;durP1;ratioP1;P1;durP2;ratioP2;P2;SDS_P1;SDS_P2;PMS_P1;PMS_P2;Temp;Humidity;BMP_temperature;BMP_pressure;BME280_temperature;BME280_humidity;BME280_pressure;Samples;Min_cycle;Max_cycle;Signal;HPM_P1;HPM_P2
2023/03/27 00:00:46;;;;;;;0.08;0.00;;;;;;;5.19;77.54;101715.63;5035480;28;96623;-29
2023/03/27 00:03:14;;;;;;;0.20;0.10;;;;;;;5.18;77.93;101713.00;5037420;28;96610;-29
2023/03/27 00:05:40;;;;;;;0.30;0.15;;;;;;;5.19;78.14;101720.13;5035144;28;101271;-28
2023/03/27 00:08:10;;;;;;;0.57;0.20;;;;;;;5.18;78.44;101740.72;5036460;27;97992;-29
2023/03/27 00:10:37;;;;;;;1.23;0.20;;;;;;;5.03;78.43;101743.78;5035796;27;96613;-28
2023/03/27 00:13:04;;;;;;;0.17;0.03;;;;;;;4.95;79.16;101757.41;5035297;28;96881;-29
2023/03/27 00:15:31;;;;;;;0.03;0.03;;;;;;;4.91;79.62;101744.97;5035328;28;100970;-28
2023/03/27 00:18:02;;;;;;;0.90;0.20;;;;;;;4.95;79.38;101743.09;5034913;28;101524;-28
2023/03/27 00:20:31;;;;;;;0.38;0.32;;;;;;;4.93;78.66;101742.25;5036886;28;96734;-29
2023/03/27 00:22:56;;;;;;;0.00;0.00;;;;;;;4.95;78.93;101737.72;5035518;28;96768;-29
2023/03/27 00:25:25;;;;;;;3.42;0.20;;;;;;;4.96;78.85;101751.13;5034629;28;101117;-28
2023/03/27 00:27:50;;;;;;;0.00;0.00;;;;;;;4.98;78.16;101760.03;5034417;28;101395;-31
2023/03/27 00:30:16;;;;;;;0.00;0.00;;;;;;;5.02;78.55;101763.50;5036240;27;96752;-28
2023/03/27 00:32:42;;;;;;;0.25;0.00;;;;;;;5.00;78.26;101757.28;5034897;28;96791;-29
2023/03/27 00:35:08;;;;;;;0.00;0.00;;;;;;;5.01;78.00;101767.13;5034205;28;100887;-30
2023/03/27 00:37:35;;;;;;;0.77;0.17;;;;;;;4.98;78.40;101778.81;5035178;28;97834;-28
2023/03/27 00:40:00;;;;;;;0.05;0.00;;;;;;;4.97;78.80;101784.22;5036197;28;96603;-29
2023/03/27 00:42:26;;;;;;;0.00;0.00;;;;;;;4.96;78.38;101771.69;5035044;28;96775;-28
2023/03/27 00:44:52;;;;;;;0.00;0.00;;;;;;;4.96;78.62;101785.13;5035845;28;99309;-29
2023/03/27 00:47:28;;;;;;;0.20;0.05;;;;;;;4.94;78.33;101784.28;5034496;28;100860;-29
2023/03/27 00:49:53;;;;;;;0.15;0.10;;;;;;;4.91;78.82;101787.94;5034639;28;96622;-29
2023/03/27 00:52:20;;;;;;;0.32;0.00;;;;;;;4.88;79.12;101785.31;5036542;28;96629;-29
2023/03/27 00:54:46;;;;;;;0.15;0.08;;;;;;;4.87;78.97;101786.22;5034276;28;101319;-29
2023/03/27 00:57:17;;;;;;;0.52;0.20;;;;;;;4.84;78.94;101789.88;5034350;28;101253;-28
2023/03/27 00:59:45;;;;;;;0.00;0.00;;;;;;;4.81;79.33;101789.91;5035739;27;96576;-29
2023/03/27 01:02:12;;;;;;;0.10;0.05;;;;;;;4.81;79.58;101795.28;5034597;28;96817;-30
2023/03/27 01:04:40;;;;;;;0.17;0.10;;;;;;;4.71;79.76;101791.03;5034065;28;101039;-29
2023/03/27 01:07:09;;;;;;;0.28;0.25;;;;;;;4.74;80.03;101808.88;5033970;28;100911;-29
2023/03/27 01:09:34;;;;;;;1.85;0.10;;;;;;;4.70;80.30;101801.84;5035791;28;96641;-29
2023/03/27 01:12:07;;;;;;;0.00;0.00;;;;;;;4.66;80.37;101809.06;5035575;27;96604;-28
2023/03/27 01:14:39;;;;;;;0.20;0.10;;;;;;;4.64;80.59;101803.72;5034055;28;98872;-28
2023/03/27 01:17:34;;;;;;;0.10;0.05;;;;;;;4.62;80.33;101802.88;5035991;28;98050;-28
2023/03/27 01:20:21;;;;;;;0.00;0.00;;;;;;;4.60;80.30;101814.53;5017800;27;96565;-28
2023/03/27 01:23:05;;;;;;;0.10;0.03;;;;;;;4.62;80.43;101816.31;5035615;27;96673;-28
2023/03/27 01:25:40;;;;;;;0.15;0.10;;;;;;;4.62;80.94;101813.63;5034934;28;97023;-28
2023/03/27 01:28:25;;;;;;;0.08;0.00;;;;;;;4.66;80.81;101819.78;5034205;28;97188;-29
2023/03/27 01:31:09;;;;;;;0.10;0.10;;;;;;;4.67;81.55;101825.13;5035230;28;96541;-29
2023/03/27 01:33:41;;;;;;;0.00;0.00;;;;;;;4.63;81.74;101836.84;5035298;28;96859;-31
2023/03/27 01:36:39;;;;;;;0.45;0.22;;;;;;;4.60;81.73;101822.59;5033525;27;100916;-29
2023/03/27 01:39:20;;;;;;;0.63;0.20;;;;;;;4.60;81.73;101810.09;5034910;28;98823;-30
2023/03/27 01:42:07;;;;;;;0.35;0.10;;;;;;;4.65;81.74;101823.41;5035638;27;96537;-30
2023/03/27 01:44:47;;;;;;;0.57;0.17;;;;;;;4.65;82.00;101831.44;5035665;27;96674;-29
2023/03/27 01:47:20;;;;;;;0.93;0.20;;;;;;;4.63;82.08;101830.59;5033251;27;100889;-28
2023/03/27 01:49:57;;;;;;;0.38;0.10;;;;;;;4.67;82.30;101841.22;5033486;28;100964;-31
2023/03/27 01:52:30;;;;;;;0.00;0.00;;;;;;;4.66;82.91;101847.50;5034951;27;96471;-29
2023/03/27 01:55:02;;;;;;;0.52;0.20;;;;;;;4.68;82.34;101852.84;5033705;28;96770;-29
2023/03/27 01:57:34;;;;;;;0.03;0.03;;;;;;;4.70;82.62;101852.81;5034815;27;99236;-30
2023/03/27 02:00:16;;;;;;;0.13;0.13;;;;;;;4.74;81.99;101857.19;5034899;27;97935;-30
2023/03/27 02:02:47;;;;;;;0.00;0.00;;;;;;;4.72;82.28;101862.59;5033849;28;96707;-28
2023/03/27 02:05:22;;;;;;;0.00;0.00;;;;;;;4.70;82.26;101860.88;5033603;27;96679;-29
2023/03/27 02:07:53;;;;;;;1.60;0.17;;;;;;;4.66;82.14;101862.72;5033349;28;100877;-29
2023/03/27 02:10:26;;;;;;;0.00;0.00;;;;;;;4.61;81.69;101861.94;5033518;28;101008;-28
2023/03/27 02:12:58;;;;;;;0.00;0.00;;;;;;;4.55;80.38;101857.56;5033490;28;96605;-29
2023/03/27 02:15:30;;;;;;;0.00;0.00;;;;;;;4.60;81.00;101863.75;5035208;28;96520;-29
2023/03/27 02:18:08;;;;;;;0.32;0.30;;;;;;;4.62;80.73;101866.38;5034102;27;97880;-28
2023/03/27 02:20:36;;;;;;;0.30;0.10;;;;;;;4.62;80.73;101875.34;5033084;28;101363;-29
2023/03/27 02:23:02;;;;;;;0.00;0.00;;;;;;;4.58;80.49;101880.78;5033396;28;96688;-29
2023/03/27 02:25:27;;;;;;;0.52;0.10;;;;;;;4.62;81.06;101882.47;5034872;28;96753;-28
2023/03/27 02:28:13;;;;;;;0.50;0.20;;;;;;;4.61;80.97;101888.78;5033430;28;97955;-28
2023/03/27 02:31:06;;;;;;;0.00;0.00;;;;;;;4.60;80.36;101893.25;5026174;28;98046;-29
2023/03/27 02:34:06;;;;;;;0.00;0.00;;;;;;;4.60;80.83;101895.94;5034546;28;96737;-28
2023/03/27 02:36:44;;;;;;;0.40;0.20;;;;;;;4.53;80.32;101902.34;5033462;28;96640;-29
2023/03/27 02:39:19;;;;;;;0.05;0.00;;;;;;;4.44;80.56;101899.84;5032956;28;101088;-29
2023/03/27 02:41:50;;;;;;;0.00;0.00;;;;;;;4.48;80.26;101912.25;5032900;28;101267;-29
2023/03/27 02:44:18;;;;;;;0.08;0.08;;;;;;;4.42;80.45;101910.59;5032753;28;96716;-29
2023/03/27 02:46:52;;;;;;;0.30;0.05;;;;;;;4.45;79.92;101909.63;5034375;27;96741;-31
2023/03/27 02:49:27;;;;;;;0.22;0.15;;;;;;;4.41;79.25;101907.91;5033960;28;97451;-29
2023/03/27 02:52:02;;;;;;;0.28;0.10;;;;;;;4.39;79.22;101907.09;5034389;27;97836;-29
2023/03/27 02:54:41;;;;;;;0.00;0.00;;;;;;;4.42;79.58;101910.59;5034562;27;96564;-29
2023/03/27 02:57:13;;;;;;;0.00;0.00;;;;;;;4.44;79.75;101907.88;5034552;28;96668;-29
2023/03/27 02:59:44;;;;;;;0.00;0.00;;;;;;;4.47;79.58;101903.31;5035033;27;97872;-29
2023/03/27 03:02:16;;;;;;;0.65;0.25;;;;;;;4.49;79.83;101911.34;5036508;28;101394;-29
2023/03/27 03:04:48;;;;;;;0.00;0.00;;;;;;;4.50;79.68;101913.09;5036591;28;96657;-29
2023/03/27 03:07:14;;;;;;;0.00;0.00;;;;;;;4.49;79.64;101915.84;5036507;28;96668;-29
2023/03/27 03:09:41;;;;;;;0.00;0.00;;;;;;;4.50;80.04;101921.16;5035368;28;101320;-29
2023/03/27 03:12:07;;;;;;;0.00;0.00;;;;;;;4.43;79.91;101916.81;5035938;28;101271;-28
2023/03/27 03:14:36;;;;;;;0.00;0.00;;;;;;;4.43;79.85;101925.78;5036198;28;96628;-31
2023/03/27 03:17:02;;;;;;;0.00;0.00;;;;;;;4.38;80.21;101922.28;5036307;28;96834;-28
2023/03/27 03:19:27;;;;;;;0.15;0.05;;;;;;;4.37;79.99;101933.06;5037302;27;97945;-29
2023/03/27 03:21:53;;;;;;;0.00;0.00;;;;;;;4.34;80.21;101935.75;5037453;27;97248;-29
2023/03/27 03:24:20;;;;;;;0.00;0.00;;;;;;;4.35;80.05;101946.47;5037298;27;96453;-29
2023/03/27 03:26:49;;;;;;;1.13;0.20;;;;;;;4.32;79.96;101951.91;5035804;28;96837;-29
2023/03/27 03:29:15;;;;;;;0.00;0.00;;;;;;;4.32;80.13;101961.75;5036946;27;99198;-29
2023/03/27 03:31:44;;;;;;;0.80;0.10;;;;;;;4.26;79.85;101966.28;5035664;28;101508;-29
2023/03/27 03:34:21;;;;;;;0.30;0.10;;;;;;;4.25;79.75;101991.34;5035229;27;96872;-28
2023/03/27 03:36:49;;;;;;;0.65;0.15;;;;;;;4.18;80.75;101989.69;5035912;28;96675;-29
2023/03/27 03:39:16;;;;;;;0.00;0.00;;;;;;;4.14;81.23;102004.03;5035465;28;100939;-29
2023/03/27 03:41:41;;;;;;;0.00;0.00;;;;;;;4.09;80.87;101997.00;5036947;28;97818;-31
2023/03/27 03:44:08;;;;;;;0.00;0.00;;;;;;;4.10;82.36;102012.16;5035688;28;96988;-29
2023/03/27 03:46:34;;;;;;;2.80;0.25;;;;;;;4.08;81.98;102003.28;5036176;28;96804;-29
2023/03/27 03:48:59;;;;;;;0.00;0.00;;;;;;;4.10;82.02;102009.47;5037051;27;97851;-28
2023/03/27 03:51:25;;;;;;;2.00;0.20;;;;;;;4.10;82.08;102006.78;5035336;28;99690;-29
2023/03/27 03:53:50;;;;;;;0.00;0.00;;;;;;;4.14;82.49;102020.13;5037013;27;96427;-29
2023/03/27 03:56:16;;;;;;;0.00;0.00;;;;;;;4.13;82.22;102013.00;5037390;27;96767;-29
2023/03/27 03:58:42;;;;;;;0.00;0.00;;;;;;;4.18;82.30;102013.81;5034938;28;101187;-28
2023/03/27 04:01:09;;;;;;;0.25;0.10;;;;;;;4.22;82.75;102003.94;5035228;28;99264;-29
2023/03/27 04:03:35;;;;;;;0.73;0.28;;;;;;;4.20;82.03;102017.38;5035470;28;96542;-30
2023/03/27 04:06:04;;;;;;;0.25;0.05;;;;;;;4.23;82.53;102011.06;5035280;28;96851;-30
2023/03/27 04:08:30;;;;;;;0.03;0.00;;;;;;;4.25;82.49;102014.59;5036369;28;97549;-28
2023/03/27 04:10:56;;;;;;;0.20;0.10;;;;;;;4.19;81.93;102010.22;5034968;28;101124;-29
2023/03/27 04:13:23;;;;;;;0.00;0.00;;;;;;;4.22;82.52;102012.88;5036841;27;96436;-29
2023/03/27 04:15:48;;;;;;;0.00;0.00;;;;;;;4.20;82.64;102012.00;5035611;28;96940;-30
2023/03/27 04:18:15;;;;;;;0.00;0.00;;;;;;;4.18;82.78;102016.50;5035004;28;100531;-28
2023/03/27 04:20:40;;;;;;;0.30;0.08;;;;;;;4.21;83.01;102021.81;5036024;27;97220;-29
2023/03/27 04:23:07;;;;;;;0.10;0.10;;;;;;;4.20;82.84;102028.09;5036184;27;96488;-29
2023/03/27 04:25:32;;;;;;;0.10;0.10;;;;;;;4.11;82.74;102020.19;5035171;28;96922;-29
2023/03/27 04:28:01;;;;;;;0.00;0.00;;;;;;;4.08;83.26;102030.09;5033788;28;100827;-29
2023/03/27 04:30:27;;;;;;;0.00;0.00;;;;;;;4.03;83.07;102041.75;5036054;27;98015;-30
2023/03/27 04:32:53;;;;;;;0.00;0.00;;;;;;;3.98;83.66;102034.69;5034940;28;96717;-28
2023/03/27 04:35:19;;;;;;;0.00;0.00;;;;;;;3.90;83.47;102040.16;5034663;28;96731;-28
2023/03/27 04:37:46;;;;;;;0.20;0.10;;;;;;;3.92;83.71;102050.88;5034626;28;100908;-29
2023/03/27 04:40:14;;;;;;;0.00;0.00;;;;;;;3.83;83.54;102044.72;5035056;28;100923;-29
2023/03/27 04:42:43;;;;;;;2.75;0.63;;;;;;;3.79;84.21;102052.81;5034890;28;96647;-29
2023/03/27 04:45:19;;;;;;;0.00;0.00;;;;;;;3.78;83.87;102056.41;5034739;28;96830;-29
2023/03/27 04:47:46;;;;;;;0.35;0.13;;;;;;;3.72;83.82;102056.50;5035026;27;97946;-30
2023/03/27 04:50:11;;;;;;;0.20;0.20;;;;;;;3.72;84.24;102067.22;5034271;28;100746;-29
2023/03/27 04:52:37;;;;;;;0.00;0.00;;;;;;;3.69;84.34;102060.09;5036132;28;96490;-28
2023/03/27 04:55:03;;;;;;;0.00;0.00;;;;;;;3.68;84.10;102065.50;5036079;27;96815;-29
2023/03/27 04:57:30;;;;;;;0.00;0.00;;;;;;;3.65;84.80;102066.44;5034326;28;101012;-29
2023/03/27 04:59:57;;;;;;;0.10;0.10;;;;;;;3.72;84.33;102080.59;5035628;27;97916;-28
2023/03/27 05:02:25;;;;;;;0.30;0.28;;;;;;;3.76;84.37;102085.91;5034360;28;96742;-30
2023/03/27 05:04:51;;;;;;;0.05;0.05;;;;;;;3.69;84.53;102097.59;5034801;28;96764;-29
2023/03/27 05:07:16;;;;;;;0.03;0.03;;;;;;;3.67;84.43;102104.81;5035562;28;98036;-31
2023/03/27 05:09:41;;;;;;;0.55;0.35;;;;;;;3.64;84.63;102102.16;5035631;27;97272;-30
2023/03/27 05:12:07;;;;;;;0.08;0.00;;;;;;;3.63;84.60;102094.16;5035705;27;96535;-29
2023/03/27 05:14:32;;;;;;;2.83;0.45;;;;;;;3.63;83.51;102097.72;5034108;28;96851;-29
2023/03/27 05:16:59;;;;;;;0.10;0.10;;;;;;;3.63;83.81;102097.72;5035377;27;97446;-29
2023/03/27 05:19:25;;;;;;;1.00;0.22;;;;;;;3.60;84.03;102092.41;5034671;27;97942;-28
2023/03/27 05:21:51;;;;;;;1.40;0.40;;;;;;;3.59;83.69;102094.16;5035414;27;96766;-28
2023/03/27 05:24:17;;;;;;;0.35;0.28;;;;;;;3.60;83.70;102097.75;5035397;27;96763;-28
2023/03/27 05:26:42;;;;;;;1.38;0.35;;;;;;;3.65;83.56;102100.34;5032956;27;101802;-28
2023/03/27 05:29:08;;;;;;;0.10;0.10;;;;;;;3.63;83.19;102105.75;5034240;28;101307;-28
2023/03/27 05:31:34;;;;;;;2.95;0.20;;;;;;;3.65;83.55;102103.03;5035483;28;96650;-29
2023/03/27 05:34:00;;;;;;;1.45;0.30;;;;;;;3.69;83.07;102112.81;5034042;28;96852;-29
2023/03/27 05:36:27;;;;;;;0.00;0.00;;;;;;;3.72;83.14;102111.00;5033359;28;100826;-28
2023/03/27 05:38:53;;;;;;;0.40;0.10;;;;;;;3.73;83.16;102107.41;5033720;27;99086;-28
2023/03/27 05:41:19;;;;;;;0.00;0.00;;;;;;;3.70;83.07;102112.81;5035399;28;96579;-28
2023/03/27 05:43:45;;;;;;;0.00;0.00;;;;;;;3.68;83.36;102121.78;5035657;27;96757;-29
2023/03/27 05:46:12;;;;;;;0.25;0.03;;;;;;;3.68;83.48;102129.81;5033598;28;100874;-29
2023/03/27 05:48:37;;;;;;;1.55;0.20;;;;;;;3.69;83.06;102131.56;5033633;28;100938;-29
2023/03/27 05:51:04;;;;;;;3.40;0.08;;;;;;;3.70;83.17;102133.34;5035312;27;96591;-29
2023/03/27 05:53:30;;;;;;;0.28;0.20;;;;;;;3.71;83.52;102135.13;5034185;28;96801;-29
2023/03/27 05:55:55;;;;;;;0.40;0.15;;;;;;;3.74;83.18;102141.34;5034963;27;97969;-29
2023/03/27 05:58:21;;;;;;;0.80;0.47;;;;;;;3.73;83.03;102138.66;5035017;27;97800;-30
2023/03/27 06:00:46;;;;;;;1.05;0.08;;;;;;;3.74;83.08;102133.31;5034301;27;96667;-29
2023/03/27 06:03:13;;;;;;;0.20;0.17;;;;;;;3.73;83.21;102142.22;5035028;27;96719;-29
2023/03/27 06:05:39;;;;;;;0.00;0.00;;;;;;;3.71;82.96;102144.03;5033271;28;99213;-29
2023/03/27 06:08:06;;;;;;;0.00;0.00;;;;;;;3.71;83.29;102146.72;5034531;27;99212;-29
2023/03/27 06:10:32;;;;;;;0.20;0.10;;;;;;;3.72;83.16;102150.28;5033379;28;96590;-29
2023/03/27 06:13:05;;;;;;;0.13;0.08;;;;;;;3.75;83.91;102150.25;5034789;27;96746;-28
2023/03/27 06:15:31;;;;;;;0.47;0.40;;;;;;;3.79;83.84;102151.97;5033050;28;101677;-29
2023/03/27 06:17:57;;;;;;;0.98;0.20;;;;;;;3.81;84.13;102151.06;5033514;28;100828;-29
2023/03/27 06:20:23;;;;;;;0.95;0.10;;;;;;;3.84;84.44;102160.88;5034749;27;96580;-28
2023/03/27 06:23:00;;;;;;;0.40;0.28;;;;;;;3.88;84.04;102165.25;5033407;28;96861;-28
2023/03/27 06:25:28;;;;;;;4.28;0.20;;;;;;;3.94;83.78;102170.56;5033813;27;99091;-28
2023/03/27 06:27:55;;;;;;;1.00;0.32;;;;;;;3.95;83.84;102166.97;5032264;28;100954;-28
2023/03/27 06:30:23;;;;;;;0.10;0.10;;;;;;;3.99;83.11;102175.88;5034941;27;96639;-28
2023/03/27 06:32:56;;;;;;;0.68;0.25;;;;;;;4.03;83.46;102185.66;5032895;28;96898;-28
2023/03/27 06:35:22;;;;;;;0.10;0.10;;;;;;;4.02;82.99;102184.75;5036650;27;98031;-28
2023/03/27 06:37:49;;;;;;;0.05;0.05;;;;;;;3.98;82.61;102182.13;5036509;27;101257;-29
2023/03/27 06:40:23;;;;;;;0.10;0.10;;;;;;;4.08;82.65;102188.28;5036530;28;96626;-29
2023/03/27 06:42:52;;;;;;;3.17;0.47;;;;;;;4.14;82.17;102189.06;5038557;27;96829;-29
2023/03/27 06:45:17;;;;;;;0.00;0.00;;;;;;;4.22;82.29;102186.28;5037830;28;97948;-29
2023/03/27 06:47:50;;;;;;;2.65;0.47;;;;;;;4.37;81.51;102194.13;5037636;27;99140;-28
2023/03/27 06:50:17;;;;;;;1.90;0.30;;;;;;;4.53;81.47;102183.16;5037295;28;96508;-29
2023/03/27 06:52:42;;;;;;;0.40;0.30;;;;;;;4.67;80.83;102183.81;5036227;28;96889;-29
2023/03/27 06:55:09;;;;;;;0.20;0.20;;;;;;;4.86;80.51;102185.34;5037909;27;97965;-29
2023/03/27 06:57:35;;;;;;;1.85;0.35;;;;;;;4.83;79.78;102189.84;5036213;28;101130;-29
2023/03/27 07:00:10;;;;;;;0.80;0.30;;;;;;;4.73;80.32;102185.53;5037979;27;97812;-29
2023/03/27 07:02:35;;;;;;;2.10;1.05;;;;;;;4.70;80.33;102193.66;5037854;27;96641;-29
2023/03/27 07:05:01;;;;;;;0.13;0.10;;;;;;;4.73;80.30;102194.47;5037362;27;99888;-28
2023/03/27 07:07:27;;;;;;;0.10;0.10;;;;;;;4.86;79.40;102197.84;5037845;27;97331;-28
2023/03/27 07:09:52;;;;;;;0.05;0.05;;;;;;;4.93;78.96;102202.19;5036255;28;96608;-29
2023/03/27 07:12:17;;;;;;;1.40;0.32;;;;;;;4.83;79.19;102206.84;5037657;27;96804;-29
2023/03/27 07:14:42;;;;;;;1.58;0.45;;;;;;;4.75;79.32;102210.56;5036765;27;99323;-29
2023/03/27 07:17:08;;;;;;;0.15;0.13;;;;;;;4.77;79.55;102220.38;5037551;27;97284;-28
2023/03/27 07:19:33;;;;;;;0.03;0.03;;;;;;;5.00;80.15;102222.66;5037500;28;96732;-29
2023/03/27 07:21:59;;;;;;;0.95;0.47;;;;;;;5.39;79.21;102227.41;5037551;27;96838;-29
2023/03/27 07:24:24;;;;;;;1.38;0.32;;;;;;;5.70;78.32;102220.56;5037321;27;97846;-28
2023/03/27 07:26:49;;;;;;;0.00;0.00;;;;;;;5.74;76.51;102221.38;5036417;27;97753;-29
2023/03/27 07:29:15;;;;;;;2.90;0.57;;;;;;;5.66;76.52;102234.09;5035197;28;96796;-28
2023/03/27 07:31:41;;;;;;;0.65;0.15;;;;;;;5.50;77.08;102236.16;5036782;28;96897;-30
2023/03/27 07:34:07;;;;;;;0.50;0.25;;;;;;;5.39;77.57;102249.78;5035752;28;99859;-28
2023/03/27 07:36:32;;;;;;;0.00;0.00;;;;;;;5.16;76.17;102241.25;5035706;27;99605;-28
2023/03/27 07:38:58;;;;;;;0.65;0.13;;;;;;;5.03;77.02;102262.00;5035523;27;96477;-29
2023/03/27 07:41:23;;;;;;;0.35;0.13;;;;;;;4.93;77.51;102255.91;5036431;28;96789;-28
2023/03/27 07:43:48;;;;;;;0.55;0.20;;;;;;;5.22;77.64;102258.16;5035780;27;99565;-29
2023/03/27 07:46:14;;;;;;;1.10;0.17;;;;;;;5.40;76.41;102254.25;5035435;27;98072;-30
2023/03/27 07:48:40;;;;;;;0.17;0.15;;;;;;;5.30;76.40;102260.69;5035835;28;96536;-28
2023/03/27 07:51:05;;;;;;;0.30;0.08;;;;;;;5.44;76.74;102261.34;5035985;27;96610;-28
2023/03/27 07:53:31;;;;;;;0.30;0.10;;;;;;;5.79;76.42;102258.91;5035665;28;97974;-29
2023/03/27 07:55:59;;;;;;;1.20;0.35;;;;;;;5.99;75.71;102266.66;5035906;27;99120;-28
2023/03/27 07:58:25;;;;;;;0.10;0.10;;;;;;;5.91;75.33;102264.06;5035724;28;96615;-29
2023/03/27 08:00:51;;;;;;;0.00;0.00;;;;;;;5.86;75.94;102274.03;5035822;27;97019;-29
2023/03/27 08:03:17;;;;;;;0.15;0.13;;;;;;;5.77;75.56;102269.72;5035033;27;97037;-29
2023/03/27 08:05:43;;;;;;;2.63;0.15;;;;;;;5.64;75.38;102277.09;5033894;27;101337;-28
2023/03/27 08:08:09;;;;;;;0.00;0.00;;;;;;;5.55;75.35;102279.94;5034389;28;96589;-29
2023/03/27 08:10:35;;;;;;;0.00;0.00;;;;;;;5.45;75.55;102279.22;5034246;28;96763;-29
2023/03/27 08:13:00;;;;;;;0.00;0.00;;;;;;;5.40;75.91;102277.53;5035157;27;99217;-29
2023/03/27 08:15:25;;;;;;;0.05;0.00;;;;;;;5.84;76.24;102281.22;5035328;27;97294;-28
2023/03/27 08:17:53;;;;;;;0.75;0.20;;;;;;;6.26;74.20;102279.53;5035493;27;96715;-29
2023/03/27 08:20:19;;;;;;;0.00;0.00;;;;;;;6.68;73.75;102284.94;5034227;28;97444;-30
2023/03/27 08:22:45;;;;;;;0.43;0.20;;;;;;;7.06;72.52;102279.59;5033740;28;101144;-29
2023/03/27 08:25:11;;;;;;;0.47;0.17;;;;;;;7.34;70.87;102286.09;5033481;28;100772;-28
2023/03/27 08:27:37;;;;;;;0.00;0.00;;;;;;;7.61;70.94;102289.00;4992167;28;1162299;-28
2023/03/27 08:30:03;;;;;;;1.20;0.13;;;;;;;7.76;66.97;102288.56;5036398;27;96803;-28
2023/03/27 08:32:29;;;;;;;1.23;0.17;;;;;;;7.88;68.16;102290.94;5034546;28;102185;-29
2023/03/27 08:34:55;;;;;;;0.88;0.45;;;;;;;7.82;65.38;102284.84;5035990;27;98076;-28
2023/03/27 08:37:20;;;;;;;0.00;0.00;;;;;;;7.63;65.59;102293.41;5035043;28;96868;-28
2023/03/27 08:39:46;;;;;;;0.25;0.20;;;;;;;7.64;68.23;102295.19;5036321;27;96772;-29
2023/03/27 08:42:19;;;;;;;0.40;0.08;;;;;;;7.55;65.43;102290.03;5036140;27;97885;-28
2023/03/27 08:44:45;;;;;;;0.30;0.10;;;;;;;7.25;66.97;102304.28;5034906;28;100777;-29
2023/03/27 08:47:16;;;;;;;0.00;0.00;;;;;;;7.28;68.42;102294.31;5034827;28;96599;-29
2023/03/27 08:50:06;;;;;;;0.20;0.10;;;;;;;7.19;68.00;102303.50;5036361;28;96785;-29
2023/03/27 08:52:33;;;;;;;0.80;0.35;;;;;;;7.44;68.38;102306.47;5033778;27;101131;-29
2023/03/27 08:55:19;;;;;;;2.75;0.20;;;;;;;7.95;67.77;102315.06;5034325;28;100922;-28
2023/03/27 08:57:45;;;;;;;0.70;0.13;;;;;;;8.13;64.54;102321.75;5033693;27;96686;-29
2023/03/27 09:00:22;;;;;;;1.55;0.30;;;;;;;7.63;65.04;102315.00;5034773;28;96909;-28
2023/03/27 09:03:23;;;;;;;0.52;0.10;;;;;;;7.62;65.23;102336.59;5034424;28;100943;-28
2023/03/27 09:06:18;;;;;;;0.47;0.08;;;;;;;7.99;64.12;102341.94;5033073;28;99164;-29
2023/03/27 09:09:10;;;;;;;0.35;0.30;;;;;;;8.34;62.42;102337.34;5034513;28;96628;-29
2023/03/27 09:11:50;;;;;;;0.00;0.00;;;;;;;8.58;61.71;102333.13;5034802;28;96851;-29
2023/03/27 09:14:28;;;;;;;0.80;0.20;;;;;;;8.84;61.60;102343.16;5035412;27;98763;-28
2023/03/27 09:16:56;;;;;;;0.13;0.00;;;;;;;8.47;57.89;102332.53;5034193;28;101086;-29
2023/03/27 09:19:44;;;;;;;0.10;0.08;;;;;;;8.29;62.28;102350.09;5035123;27;96545;-29
2023/03/27 09:22:19;;;;;;;2.30;0.13;;;;;;;8.70;62.75;102348.97;5034374;28;96771;-28
2023/03/27 09:24:53;;;;;;;1.63;0.17;;;;;;;9.06;61.02;102353.31;5033786;27;100713;-29
2023/03/27 09:27:24;;;;;;;3.40;0.35;;;;;;;8.76;61.15;102357.81;5034343;27;99150;-30
2023/03/27 09:29:58;;;;;;;1.40;0.33;;;;;;;8.63;61.54;102362.72;5034051;28;96582;-30
2023/03/27 09:32:25;;;;;;;4.65;0.43;;;;;;;8.72;60.28;102359.72;5033901;28;96719;-29
2023/03/27 09:34:50;;;;;;;0.15;0.13;;;;;;;8.49;62.32;102374.78;5033697;28;99216;-29
2023/03/27 09:37:16;;;;;;;0.30;0.10;;;;;;;8.07;63.11;102377.69;5035436;27;99292;-28
2023/03/27 09:39:46;;;;;;;0.63;0.13;;;;;;;7.82;65.51;102380.13;5035501;28;96436;-29
2023/03/27 09:42:18;;;;;;;0.52;0.22;;;;;;;7.63;66.36;102386.94;5034041;28;96602;-28
2023/03/27 09:44:50;;;;;;;0.15;0.00;;;;;;;7.78;66.57;102380.25;5033104;28;100746;-28
2023/03/27 09:47:21;;;;;;;0.20;0.00;;;;;;;8.33;65.56;102394.13;5034902;27;99003;-29
2023/03/27 09:49:51;;;;;;;0.65;0.08;;;;;;;8.56;63.97;102382.72;5033815;28;96681;-28
2023/03/27 09:52:38;;;;;;;2.28;0.22;;;;;;;8.87;62.94;102378.19;5033957;28;96801;-28
2023/03/27 09:55:22;;;;;;;0.47;0.15;;;;;;;9.25;62.10;102376.13;5034993;27;97852;-29
2023/03/27 09:57:48;;;;;;;0.93;0.28;;;;;;;9.65;61.22;102369.41;5034903;27;99316;-29
2023/03/27 10:00:30;;;;;;;1.20;0.40;;;;;;;10.05;61.79;102373.47;5035319;27;96723;-28
2023/03/27 10:03:02;;;;;;;1.57;0.37;;;;;;;10.32;61.00;102379.78;5034148;28;96728;-31
2023/03/27 10:05:30;;;;;;;0.08;0.08;;;;;;;10.60;61.32;102376.94;5033250;28;99321;-29
2023/03/27 10:07:56;;;;;;;0.47;0.15;;;;;;;10.63;59.73;102373.25;5034451;27;99217;-29
2023/03/27 10:10:23;;;;;;;2.00;0.40;;;;;;;10.75;56.99;102382.72;5034360;27;96575;-29
2023/03/27 10:12:54;;;;;;;1.25;0.30;;;;;;;10.95;59.07;102393.69;5033343;28;96863;-29
2023/03/27 10:15:39;;;;;;;0.00;0.00;;;;;;;10.75;59.90;102398.97;5033257;28;101277;-28
2023/03/27 10:18:17;;;;;;;2.95;0.43;;;;;;;10.37;58.15;102410.28;5033183;28;100482;-29
2023/03/27 10:20:50;;;;;;;0.65;0.20;;;;;;;9.70;60.63;102421.56;5033407;28;96608;-29
2023/03/27 10:23:28;;;;;;;0.28;0.15;;;;;;;8.81;62.83;102440.50;5033381;28;96690;-29
2023/03/27 10:26:00;;;;;;;0.00;0.00;;;;;;;8.35;65.15;102422.84;5034341;28;99799;-28
2023/03/27 10:28:27;;;;;;;0.00;0.00;;;;;;;8.18;66.69;102426.00;5033309;28;101464;-28
2023/03/27 10:31:05;;;;;;;0.00;0.00;;;;;;;7.99;67.52;102430.97;5034531;27;96699;-29
2023/03/27 10:33:35;;;;;;;0.20;0.00;;;;;;;8.02;68.42;102430.88;5032952;28;96841;-29
2023/03/27 10:36:02;;;;;;;0.10;0.10;;;;;;;8.55;67.95;102429.53;5032383;28;102145;-29
2023/03/27 10:38:30;;;;;;;0.28;0.05;;;;;;;9.02;66.32;102427.31;5032968;28;102102;-28
2023/03/27 10:40:56;;;;;;;0.35;0.25;;;;;;;8.61;66.30;102426.69;5033157;28;96663;-29
2023/03/27 10:43:32;;;;;;;1.92;0.25;;;;;;;8.20;67.21;102431.31;5034502;27;96561;-29
2023/03/27 10:46:04;;;;;;;1.95;0.17;;;;;;;7.92;67.91;102437.44;5032696;28;100953;-29
2023/03/27 10:48:37;;;;;;;;;;;;;;;7.82;68.15;102447.59;5034790;27;97818;-29
2023/03/27 10:51:20;;;;;;;0.73;0.10;;;;;;;7.79;68.52;102444.06;5034341;28;96686;-29
2023/03/27 10:53:54;;;;;;;0.40;0.15;;;;;;;8.27;68.53;102441.03;5033512;28;96649;-29
2023/03/27 10:56:26;;;;;;;0.10;0.10;;;;;;;8.90;67.08;102437.53;5032645;28;101393;-29
2023/03/27 10:58:51;;;;;;;0.43;0.13;;;;;;;9.41;64.48;102443.22;5033869;27;99202;-28
2023/03/27 11:01:27;;;;;;;3.92;0.20;;;;;;;9.84;64.07;102437.31;5033963;28;96487;-29
2023/03/27 11:04:02;;;;;;;1.40;0.25;;;;;;;10.22;62.79;102443.28;5034575;27;96603;-28
2023/03/27 11:06:32;;;;;;;0.17;0.10;;;;;;;10.50;61.21;102436.94;5032604;28;101321;-30
2023/03/27 11:09:04;;;;;;;0.28;0.20;;;;;;;10.57;59.42;102441.19;5032325;28;100642;-29
2023/03/27 11:11:44;;;;;;;0.65;0.17;;;;;;;10.60;60.38;102446.50;5032941;28;96774;-31
2023/03/27 11:14:19;;;;;;;0.50;0.15;;;;;;;10.70;58.77;102447.03;5032896;28;96648;-28
2023/03/27 11:16:51;;;;;;;2.72;0.10;;;;;;;10.45;58.98;102444.34;5032482;28;101156;-29
2023/03/27 11:19:24;;;;;;;0.25;0.13;;;;;;;10.48;59.95;102436.97;5032732;27;101154;-29
2023/03/27 11:21:58;;;;;;;1.08;0.35;;;;;;;10.53;58.29;102451.25;5035399;28;96736;-29
2023/03/27 11:24:37;;;;;;;1.25;0.10;;;;;;;10.65;56.53;102446.34;5034617;28;97000;-29
2023/03/27 11:27:26;;;;;;;2.53;0.20;;;;;;;10.69;54.75;102445.28;5035750;27;99606;-28
2023/03/27 11:30:07;;;;;;;1.70;0.47;;;;;;;10.83;57.54;102459.22;5035434;28;101268;-29
2023/03/27 11:33:23;;;;;;;3.72;0.50;;;;;;;11.04;56.39;102453.00;5035800;28;96806;-28
2023/03/27 11:36:12;;;;;;;0.55;0.28;;;;;;;10.91;57.87;102459.81;4978102;28;96853;-28
2023/03/27 11:38:43;;;;;;;1.83;0.10;;;;;;;11.04;55.20;102466.56;4994195;28;97344;-30
2023/03/27 11:41:13;;;;;;;0.80;0.00;;;;;;;11.33;55.46;102453.72;5025910;27;98959;-29
2023/03/27 11:43:39;;;;;;;0.38;0.20;;;;;;;11.50;55.60;102463.91;5035862;28;96596;-30
2023/03/27 11:46:20;;;;;;;2.58;0.10;;;;;;;11.53;55.18;102465.59;5036117;28;96939;-29